Time;durP1;ratioP1;P1;durP2;ratioP2;P2;SDS_P1;SDS_P2;PMS_P1;PMS_P2;Temp;Humidity;BMP_temperature;BMP_pressure;BME280_temperature;BME280_humidity;BME280_pressure;Samples;Min_cycle;Max_cycle;Signal;HPM_P1;HPM_P2
2022/12/28 00:02:06;;;;;;;;;;;4.90;99.90;;;;;;4859478;29;19935;-75
2022/12/28 00:04:31;;;;;;;;;;;5.00;99.90;;;;;;4859447;29;20034;-75
2022/12/28 00:06:57;;;;;;;;;;;5.00;99.90;;;;;;4858710;29;19926;-74
2022/12/28 00:09:23;;;;;;;;;;;5.00;99.90;;;;;;4843685;29;20384;-74
2022/12/28 00:11:49;;;;;;;;;;;5.00;99.90;;;;;;4858301;29;19927;-74
2022/12/28 00:14:15;;;;;;;;;;;5.00;99.90;;;;;;4858570;29;20639;-74
2022/12/28 00:16:41;;;;;;;;;;;5.00;99.90;;;;;;4842698;29;20432;-76
2022/12/28 00:19:11;;;;;;;;;;;5.00;99.90;;;;;;4840341;29;20002;-74
2022/12/28 00:21:37;;;;;;;;;;;5.00;99.90;;;;;;4858746;29;19930;-74
2022/12/28 00:24:02;;;;;;;;;;;5.00;99.90;;;;;;4858791;29;19928;-74
2022/12/28 00:26:29;;;;;;;;;;;5.00;99.90;;;;;;4842639;29;20308;-75
2022/12/28 00:28:56;;;;;;;;;;;5.00;99.90;;;;;;4859042;29;19983;-74
2022/12/28 00:31:22;;;;;;;;;;;5.00;99.90;;;;;;4842541;29;20019;-75
2022/12/28 00:33:47;;;;;;;;;;;5.00;99.90;;;;;;4843689;29;20387;-75
2022/12/28 00:36:14;;;;;;;;;;;5.00;99.90;;;;;;4858857;29;19932;-75
2022/12/28 00:38:40;;;;;;;;;;;5.00;99.90;;;;;;4858698;29;19924;-74
2022/12/28 00:41:06;;;;;;;;;;;5.00;99.90;;;;;;4855338;29;20043;-74
2022/12/28 00:43:31;;;;;;;;;;;5.00;99.90;;;;;;4858398;29;19998;-75
2022/12/28 00:45:57;;;;;;;;;;;5.00;99.90;;;;;;4858848;29;19966;-74
2022/12/28 00:48:23;;;;;;;;;;;5.00;99.90;;;;;;4858199;29;19923;-75
2022/12/28 00:50:49;;;;;;;;;;;5.00;99.90;;;;;;4859424;29;19924;-75
2022/12/28 00:53:15;;;;;;;;;;;5.00;99.90;;;;;;4858188;29;19938;-75
2022/12/28 00:55:41;;;;;;;;;;;5.10;99.90;;;;;;4859069;29;20014;-75
2022/12/28 00:58:07;;;;;;;;;;;5.10;99.90;;;;;;4843169;29;19970;-75
2022/12/28 01:00:33;;;;;;;;;;;5.10;99.90;;;;;;4858734;29;19999;-75
2022/12/28 01:02:58;;;;;;;;;;;5.10;99.90;;;;;;4857048;29;20620;-75
2022/12/28 01:05:24;;;;;;;;;;;5.10;99.90;;;;;;4859060;29;19955;-75
2022/12/28 01:07:50;;;;;;;;;;;5.10;99.90;;;;;;4858177;29;20042;-75
2022/12/28 01:10:15;;;;;;;;;;;5.10;99.90;;;;;;4859021;29;19927;-75
2022/12/28 01:12:41;;;;;;;;;;;5.10;99.90;;;;;;4858372;29;19924;-75
2022/12/28 01:15:08;;;;;;;;;;;5.10;99.90;;;;;;4858952;29;19935;-75
2022/12/28 01:17:33;;;;;;;;;;;5.10;99.90;;;;;;4857352;29;19928;-75
2022/12/28 01:19:59;;;;;;;;;;;5.10;99.90;;;;;;4858774;29;19927;-75
2022/12/28 01:22:25;;;;;;;;;;;5.10;99.90;;;;;;4858892;29;20690;-75
2022/12/28 01:24:50;;;;;;;;;;;5.10;99.90;;;;;;4858410;29;19939;-75
2022/12/28 01:27:16;;;;;;;;;;;5.10;99.90;;;;;;4858393;29;19984;-75
2022/12/28 01:29:42;;;;;;;;;;;5.10;99.90;;;;;;4857865;29;19923;-74
2022/12/28 01:32:07;;;;;;;;;;;5.10;99.90;;;;;;4858292;29;20018;-74
2022/12/28 01:34:33;;;;;;;;;;;5.10;99.90;;;;;;4858716;29;20404;-75
2022/12/28 01:36:59;;;;;;;;;;;5.10;99.90;;;;;;4858830;29;19934;-76
2022/12/28 01:39:24;;;;;;;;;;;5.10;99.90;;;;;;4858629;29;19931;-75
2022/12/28 01:41:50;;;;;;;;;;;5.00;99.90;;;;;;4852703;29;20463;-76
2022/12/28 01:44:15;;;;;;;;;;;5.10;99.90;;;;;;4840341;29;20020;-75
2022/12/28 01:47:01;;;;;;;;;;;5.10;99.90;;;;;;4840506;29;19932;-76
2022/12/28 01:49:27;;;;;;;;;;;5.10;99.90;;;;;;4858699;29;19934;-76
2022/12/28 01:52:11;;;;;;;;;;;5.10;99.90;;;;;;4858460;29;19928;-75
2022/12/28 01:54:39;;;;;;;;;;;5.10;99.90;;;;;;4848866;29;19928;-76
2022/12/28 01:57:05;;;;;;;;;;;5.20;99.90;;;;;;4849350;29;19929;-76
2022/12/28 01:59:33;;;;;;;;;;;5.20;99.90;;;;;;4854645;29;19935;-75
2022/12/28 02:01:58;;;;;;;;;;;5.30;99.90;;;;;;4853135;29;20436;-75
2022/12/28 02:04:24;;;;;;;;;;;5.20;99.90;;;;;;4855819;29;19928;-75
2022/12/28 02:06:50;;;;;;;;;;;5.30;99.90;;;;;;4848970;29;20024;-76
2022/12/28 02:09:28;;;;;;;;;;;5.20;99.90;;;;;;4853569;29;20019;-75
2022/12/28 02:11:54;;;;;;;;;;;5.30;99.90;;;;;;4854949;29;19924;-75
2022/12/28 02:14:20;;;;;;;;;;;5.30;99.90;;;;;;4838065;29;20015;-76
2022/12/28 02:16:45;;;;;;;;;;;5.30;99.90;;;;;;4855558;29;20345;-74
2022/12/28 02:19:13;;;;;;;;;;;5.40;99.90;;;;;;4823696;29;20003;-75
2022/12/28 02:21:57;;;;;;;;;;;5.40;99.90;;;;;;4854688;29;19924;-75
2022/12/28 02:24:41;;;;;;;;;;;5.40;99.90;;;;;;4851374;29;19951;-76
2022/12/28 02:27:22;;;;;;;;;;;5.50;99.90;;;;;;4837868;29;19931;-75
2022/12/28 02:29:51;;;;;;;;;;;5.50;99.90;;;;;;4853827;29;19924;-75
2022/12/28 02:32:38;;;;;;;;;;;5.50;99.90;;;;;;4852962;29;20360;-74
2022/12/28 02:35:07;;;;;;;;;;;5.60;99.90;;;;;;4862261;29;20027;-75
2022/12/28 02:37:33;;;;;;;;;;;5.60;99.90;;;;;;4856084;29;19935;-75
2022/12/28 02:40:01;;;;;;;;;;;5.60;99.90;;;;;;4858564;29;19928;-75
2022/12/28 02:42:27;;;;;;;;;;;5.60;99.90;;;;;;4856491;29;19928;-75
2022/12/28 02:50:26;;;;;;;;;;;5.70;99.90;;;;;;4855201;29;19947;-76
2022/12/28 02:52:52;;;;;;;;;;;5.70;99.90;;;;;;4856244;29;19924;-76
2022/12/28 02:58:12;;;;;;;;;;;5.70;99.90;;;;;;4859671;29;20434;-76
2022/12/28 03:00:57;;;;;;;;;;;5.70;99.90;;;;;;4843514;29;19924;-76
2022/12/28 03:03:43;;;;;;;;;;;5.70;99.90;;;;;;4858960;29;19934;-76
2022/12/28 03:09:07;;;;;;;;;;;5.80;99.90;;;;;;4843795;29;19931;-76
2022/12/28 03:11:45;;;;;;;;;;;5.80;99.90;;;;;;4857023;29;19981;-76
2022/12/28 03:14:19;;;;;;;;;;;5.80;99.90;;;;;;4860074;29;19932;-75
2022/12/28 03:31:02;;;;;;;;;;;5.70;99.90;;;;;;4885343;29;20385;-75
2022/12/28 03:33:28;;;;;;;;;;;5.70;99.90;;;;;;4860436;29;19928;-77
2022/12/28 03:36:16;;;;;;;;;;;5.70;99.90;;;;;;4862530;29;20007;-75
2022/12/28 03:38:42;;;;;;;;;;;5.70;99.90;;;;;;4861177;29;19928;-75
2022/12/28 03:41:10;;;;;;;;;;;5.60;99.90;;;;;;4866449;29;19947;-75
2022/12/28 03:43:43;;;;;;;;;;;5.70;99.90;;;;;;4866218;29;19932;-75
2022/12/28 03:46:09;;;;;;;;;;;5.70;99.90;;;;;;4867023;29;19931;-76
2022/12/28 03:48:36;;;;;;;;;;;5.70;99.90;;;;;;4860191;29;21244;-76
2022/12/28 03:51:02;;;;;;;;;;;5.70;99.90;;;;;;4860857;29;19934;-76
2022/12/28 03:53:47;;;;;;;;;;;5.70;99.90;;;;;;4861382;29;19928;-75
2022/12/28 03:56:15;;;;;;;;;;;5.70;99.90;;;;;;4844278;29;19928;-76
2022/12/28 03:58:41;;;;;;;;;;;5.70;99.90;;;;;;4844141;29;19935;-76
2022/12/28 04:01:06;;;;;;;;;;;5.70;99.90;;;;;;4849136;29;20007;-76
2022/12/28 04:03:32;;;;;;;;;;;5.70;99.90;;;;;;4858063;29;19991;-76
2022/12/28 04:05:58;;;;;;;;;;;5.70;99.90;;;;;;4858792;29;19924;-76
2022/12/28 04:08:23;;;;;;;;;;;5.70;99.90;;;;;;4840258;29;20341;-76
2022/12/28 04:10:49;;;;;;;;;;;5.70;99.90;;;;;;4838225;29;19974;-76
2022/12/28 04:13:14;;;;;;;;;;;5.70;99.90;;;;;;4858169;29;20269;-76
2022/12/28 04:15:40;;;;;;;;;;;5.80;99.90;;;;;;4843049;29;20455;-76
2022/12/28 04:18:06;;;;;;;;;;;5.80;99.90;;;;;;4855080;29;19935;-76
2022/12/28 04:20:31;;;;;;;;;;;5.80;99.90;;;;;;4843451;29;19979;-76
2022/12/28 04:22:57;;;;;;;;;;;5.80;99.90;;;;;;4857938;29;19935;-76
2022/12/28 04:25:22;;;;;;;;;;;5.80;99.90;;;;;;4858253;29;19987;-76
2022/12/28 04:27:48;;;;;;;;;;;5.80;99.90;;;;;;4841908;29;19925;-76
2022/12/28 04:30:14;;;;;;;;;;;5.80;99.90;;;;;;4858272;29;20014;-76
2022/12/28 04:32:39;;;;;;;;;;;5.80;99.90;;;;;;4857698;29;19928;-76
2022/12/28 04:35:05;;;;;;;;;;;5.80;99.90;;;;;;4842617;29;19974;-75
2022/12/28 04:37:30;;;;;;;;;;;5.80;99.90;;;;;;4823432;29;19949;-75
2022/12/28 04:39:56;;;;;;;;;;;5.80;99.90;;;;;;4863003;29;20011;-75
2022/12/28 04:42:22;;;;;;;;;;;5.80;99.90;;;;;;4858044;29;20332;-75
2022/12/28 04:44:48;;;;;;;;;;;5.80;99.90;;;;;;4858240;29;20562;-75
2022/12/28 04:47:13;;;;;;;;;;;5.90;99.90;;;;;;4842170;29;19928;-76
2022/12/28 04:49:39;;;;;;;;;;;5.80;99.90;;;;;;4842504;29;19971;-75
2022/12/28 04:52:04;;;;;;;;;;;5.90;99.90;;;;;;4841778;29;20382;-75
2022/12/28 04:54:30;;;;;;;;;;;5.80;99.90;;;;;;4857630;29;19935;-76
2022/12/28 04:56:55;;;;;;;;;;;5.80;99.90;;;;;;4857240;29;20415;-76
2022/12/28 04:59:21;;;;;;;;;;;5.80;99.90;;;;;;4856981;29;20304;-76
2022/12/28 05:01:47;;;;;;;;;;;5.90;99.90;;;;;;4856814;29;19932;-76
2022/12/28 05:04:12;;;;;;;;;;;5.90;99.90;;;;;;4857788;29;19931;-76
2022/12/28 05:06:38;;;;;;;;;;;5.80;99.90;;;;;;4857189;29;19928;-76
2022/12/28 05:09:03;;;;;;;;;;;5.90;99.90;;;;;;4857815;29;20011;-76
2022/12/28 05:11:30;;;;;;;;;;;5.90;99.90;;;;;;4838581;29;20043;-76
2022/12/28 05:13:56;;;;;;;;;;;5.90;99.90;;;;;;4838767;29;20487;-76
2022/12/28 05:16:22;;;;;;;;;;;5.90;99.90;;;;;;4857118;29;20071;-76
2022/12/28 05:18:48;;;;;;;;;;;5.90;99.90;;;;;;4841768;29;19959;-76
2022/12/28 05:21:15;;;;;;;;;;;5.90;99.90;;;;;;4856887;29;20036;-76
2022/12/28 05:23:41;;;;;;;;;;;5.90;99.90;;;;;;4842031;29;19950;-76
2022/12/28 05:26:09;;;;;;;;;;;5.90;99.90;;;;;;4856920;29;19923;-76
2022/12/28 05:28:35;;;;;;;;;;;5.90;99.90;;;;;;4858046;29;20591;-76
2022/12/28 05:31:02;;;;;;;;;;;6.00;99.90;;;;;;4841548;29;19924;-76
2022/12/28 05:33:29;;;;;;;;;;;6.00;99.90;;;;;;4841727;29;19927;-76
2022/12/28 05:35:54;;;;;;;;;;;6.10;99.90;;;;;;4856979;29;20297;-76
2022/12/28 05:38:20;;;;;;;;;;;6.10;99.90;;;;;;4841761;29;20026;-76
2022/12/28 05:40:45;;;;;;;;;;;6.10;99.90;;;;;;4841623;29;20052;-76
2022/12/28 05:43:11;;;;;;;;;;;6.10;99.90;;;;;;4823402;29;20015;-77
2022/12/28 05:45:37;;;;;;;;;;;6.20;99.90;;;;;;4840027;29;19924;-76
2022/12/28 05:48:02;;;;;;;;;;;6.20;99.90;;;;;;4856912;29;19927;-76
2022/12/28 05:50:28;;;;;;;;;;;6.30;99.90;;;;;;4841609;29;19923;-76
2022/12/28 05:52:53;;;;;;;;;;;6.30;99.90;;;;;;4856349;29;19924;-76
2022/12/28 05:55:19;;;;;;;;;;;6.30;99.90;;;;;;4856742;29;20684;-77
2022/12/28 05:57:44;;;;;;;;;;;6.40;99.90;;;;;;4856703;29;20014;-77
2022/12/28 06:00:10;;;;;;;;;;;6.40;99.90;;;;;;4856298;29;19928;-77
2022/12/28 06:02:36;;;;;;;;;;;6.50;99.90;;;;;;4850666;29;19927;-77
2022/12/28 06:05:01;;;;;;;;;;;6.60;99.90;;;;;;4843519;29;20297;-77
2022/12/28 06:07:27;;;;;;;;;;;6.70;99.90;;;;;;4822765;29;19928;-77
2022/12/28 06:09:53;;;;;;;;;;;6.80;99.90;;;;;;4862314;29;19928;-76
2022/12/28 06:12:18;;;;;;;;;;;6.80;99.90;;;;;;4832977;29;19923;-76
2022/12/28 06:14:44;;;;;;;;;;;6.90;99.90;;;;;;4857657;29;19959;-77
2022/12/28 06:17:09;;;;;;;;;;;7.00;99.90;;;;;;4856558;29;19923;-76
2022/12/28 06:19:35;;;;;;;;;;;7.00;99.90;;;;;;4846715;29;19935;-77
2022/12/28 06:22:00;;;;;;;;;;;7.10;99.90;;;;;;4860746;29;20428;-76
2022/12/28 06:24:26;;;;;;;;;;;7.10;99.90;;;;;;4874842;29;19936;-76
2022/12/28 06:26:51;;;;;;;;;;;7.10;99.90;;;;;;4862965;29;19928;-77
2022/12/28 06:29:17;;;;;;;;;;;7.10;99.90;;;;;;4860171;29;20003;-77
2022/12/28 06:31:44;;;;;;;;;;;7.10;99.90;;;;;;4852863;29;20398;-77
2022/12/28 06:34:09;;;;;;;;;;;7.10;99.90;;;;;;4859799;29;19950;-77
2022/12/28 06:36:36;;;;;;;;;;;7.00;99.90;;;;;;4859877;29;20337;-77
2022/12/28 06:39:03;;;;;;;;;;;7.00;99.90;;;;;;4860528;29;20379;-77
2022/12/28 06:41:29;;;;;;;;;;;7.00;99.90;;;;;;4860747;29;19927;-77
2022/12/28 06:43:55;;;;;;;;;;;6.90;99.90;;;;;;4843433;29;19979;-77
2022/12/28 06:46:22;;;;;;;;;;;6.90;99.90;;;;;;4845249;29;19976;-77
2022/12/28 06:48:47;;;;;;;;;;;6.90;99.90;;;;;;4844574;29;19924;-77
2022/12/28 06:51:39;;;;;;;;;;;6.90;99.90;;;;;;4859935;29;19946;-77
2022/12/28 06:54:05;;;;;;;;;;;6.90;99.90;;;;;;4844023;29;20066;-77
2022/12/28 06:56:31;;;;;;;;;;;6.90;99.90;;;;;;4829017;29;19978;-77
2022/12/28 06:58:58;;;;;;;;;;;6.80;99.90;;;;;;4843909;29;20285;-77
2022/12/28 07:01:25;;;;;;;;;;;6.80;99.90;;;;;;4859102;29;19924;-77
2022/12/28 07:03:51;;;;;;;;;;;6.80;99.90;;;;;;4844113;29;20349;-77
2022/12/28 07:06:17;;;;;;;;;;;6.80;99.90;;;;;;4859799;29;19928;-77
2022/12/28 07:08:43;;;;;;;;;;;6.90;99.90;;;;;;4844371;29;19927;-77
2022/12/28 07:11:13;;;;;;;;;;;6.90;99.90;;;;;;4857828;29;20479;-76
2022/12/28 07:13:39;;;;;;;;;;;7.00;99.90;;;;;;4859140;29;19930;-77
2022/12/28 07:16:06;;;;;;;;;;;7.20;99.90;;;;;;4828731;29;20046;-77
2022/12/28 07:18:32;;;;;;;;;;;7.20;99.90;;;;;;4835594;29;20377;-77
2022/12/28 07:21:03;;;;;;;;;;;7.30;99.90;;;;;;4858891;29;19924;-77
2022/12/28 07:23:30;;;;;;;;;;;7.40;99.90;;;;;;4859158;29;19932;-76
2022/12/28 07:25:56;;;;;;;;;;;7.40;99.90;;;;;;4825739;29;19974;-77
2022/12/28 07:28:22;;;;;;;;;;;7.50;99.90;;;;;;4850947;29;19923;-77
2022/12/28 07:30:47;;;;;;;;;;;7.60;99.90;;;;;;4859328;29;20288;-77
2022/12/28 07:33:13;;;;;;;;;;;7.60;99.90;;;;;;4858981;29;19924;-77
2022/12/28 07:35:38;;;;;;;;;;;7.60;99.90;;;;;;4828089;29;19924;-76
2022/12/28 07:38:04;;;;;;;;;;;7.60;99.90;;;;;;4858692;29;20360;-77
2022/12/28 07:40:29;;;;;;;;;;;7.60;99.90;;;;;;4843881;29;19938;-77
2022/12/28 07:42:55;;;;;;;;;;;7.70;99.90;;;;;;4859257;29;19928;-77
2022/12/28 07:45:20;;;;;;;;;;;7.70;99.90;;;;;;4858557;29;19967;-76
2022/12/28 07:47:46;;;;;;;;;;;7.70;99.90;;;;;;4841209;29;20461;-77
2022/12/28 07:50:12;;;;;;;;;;;7.70;99.90;;;;;;4846153;29;20026;-77
2022/12/28 07:52:37;;;;;;;;;;;7.70;99.90;;;;;;4845565;29;19975;-77
2022/12/28 07:55:03;;;;;;;;;;;7.70;99.90;;;;;;4845471;29;19932;-77
2022/12/28 07:57:28;;;;;;;;;;;7.70;99.90;;;;;;4846273;29;19975;-77
2022/12/28 07:59:54;;;;;;;;;;;7.70;99.90;;;;;;4860183;29;19975;-77
2022/12/28 08:02:20;;;;;;;;;;;7.70;99.90;;;;;;4861048;29;19928;-77
2022/12/28 08:04:45;;;;;;;;;;;7.80;99.90;;;;;;4860558;29;19978;-77
2022/12/28 08:07:11;;;;;;;;;;;7.80;99.90;;;;;;4828101;29;19935;-77
2022/12/28 08:09:37;;;;;;;;;;;7.70;99.90;;;;;;4844555;29;20340;-76
2022/12/28 08:12:02;;;;;;;;;;;7.70;99.90;;;;;;4860089;29;19928;-76
2022/12/28 08:14:29;;;;;;;;;;;7.60;99.90;;;;;;4859771;29;19924;-76
2022/12/28 08:16:54;;;;;;;;;;;7.60;99.90;;;;;;4845858;29;19958;-76
2022/12/28 08:19:20;;;;;;;;;;;7.50;99.90;;;;;;4845766;29;19978;-76
2022/12/28 08:21:45;;;;;;;;;;;7.60;99.90;;;;;;4844407;29;19971;-77
2022/12/28 08:24:16;;;;;;;;;;;7.60;99.90;;;;;;4857659;29;19928;-76
2022/12/28 08:26:43;;;;;;;;;;;7.70;99.90;;;;;;4840460;29;20373;-77
2022/12/28 08:29:11;;;;;;;;;;;7.70;99.90;;;;;;4844421;29;20294;-78
2022/12/28 08:31:38;;;;;;;;;;;7.70;99.90;;;;;;4862618;29;19979;-78
2022/12/28 08:34:05;;;;;;;;;;;7.80;99.90;;;;;;4862038;29;19928;-77
2022/12/28 08:36:31;;;;;;;;;;;7.80;99.90;;;;;;4832493;29;19931;-79
2022/12/28 08:39:00;;;;;;;;;;;7.80;99.90;;;;;;4848124;29;20301;-78
2022/12/28 08:41:26;;;;;;;;;;;7.80;99.90;;;;;;4832621;29;19923;-78
2022/12/28 08:43:52;;;;;;;;;;;7.80;99.90;;;;;;4860949;29;20037;-78
2022/12/28 08:46:18;;;;;;;;;;;7.70;99.90;;;;;;4860373;29;19924;-78
2022/12/28 08:48:44;;;;;;;;;;;7.70;99.90;;;;;;4836054;29;19924;-78
2022/12/28 08:51:10;;;;;;;;;;;7.60;99.90;;;;;;4845861;29;20241;-78
2022/12/28 08:53:45;;;;;;;;;;;7.60;99.90;;;;;;4872000;29;19936;-78
2022/12/28 08:56:14;;;;;;;;;;;7.60;99.90;;;;;;4864482;29;19976;-78
2022/12/28 08:58:41;;;;;;;;;;;7.70;99.90;;;;;;4864338;29;19934;-79
2022/12/28 09:01:11;;;;;;;;;;;7.80;99.90;;;;;;4864126;29;19928;-78
2022/12/28 09:03:38;;;;;;;;;;;7.80;99.90;;;;;;4862499;29;19939;-78
2022/12/28 09:06:04;;;;;;;;;;;7.90;99.90;;;;;;4834037;29;19991;-78
2022/12/28 09:08:30;;;;;;;;;;;7.90;99.90;;;;;;4860250;29;19939;-79
2022/12/28 09:11:00;;;;;;;;;;;7.90;99.90;;;;;;4833474;29;19932;-79
2022/12/28 09:13:26;;;;;;;;;;;7.90;99.90;;;;;;4860090;29;19938;-79
2022/12/28 09:15:59;;;;;;;;;;;7.90;99.90;;;;;;4845623;29;19983;-78
2022/12/28 09:18:25;;;;;;;;;;;7.90;99.90;;;;;;4837541;29;19927;-78
2022/12/28 09:20:51;;;;;;;;;;;7.90;99.90;;;;;;4848863;29;19923;-78
2022/12/28 09:23:16;;;;;;;;;;;8.00;99.90;;;;;;4829868;29;19932;-77
2022/12/28 09:25:42;;;;;;;;;;;7.90;99.90;;;;;;4820942;29;19928;-77
2022/12/28 09:28:08;;;;;;;;;;;8.00;99.90;;;;;;4862711;29;20384;-79
2022/12/28 09:30:33;;;;;;;;;;;8.00;99.90;;;;;;4862223;29;19974;-78
2022/12/28 09:35:43;;;;;;;;;;;8.10;99.90;;;;;;4871658;29;19983;-79
2022/12/28 09:38:09;;;;;;;;;;;8.10;99.90;;;;;;4835342;29;19970;-80
2022/12/28 09:40:35;;;;;;;;;;;8.10;99.90;;;;;;4859672;29;19975;-77
2022/12/28 09:43:01;;;;;;;;;;;8.10;99.90;;;;;;4841039;29;19924;-76
2022/12/28 09:45:26;;;;;;;;;;;8.10;99.90;;;;;;4840955;29;19934;-77
2022/12/28 09:47:56;;;;;;;;;;;8.10;99.90;;;;;;4844085;29;20381;-76
2022/12/28 09:50:28;;;;;;;;;;;8.10;99.90;;;;;;4846822;29;19924;-76
2022/12/28 09:52:58;;;;;;;;;;;8.10;99.90;;;;;;4855726;29;20010;-76
2022/12/28 09:55:24;;;;;;;;;;;8.00;99.90;;;;;;4851020;29;19928;-75
2022/12/28 09:57:54;;;;;;;;;;;8.00;99.90;;;;;;4860112;29;20494;-75
2022/12/28 10:00:21;;;;;;;;;;;7.90;99.90;;;;;;4841048;29;20453;-75
2022/12/28 10:02:52;;;;;;;;;;;7.90;99.90;;;;;;4857279;29;20506;-75
2022/12/28 10:05:19;;;;;;;;;;;7.80;99.90;;;;;;4854298;29;19998;-74
2022/12/28 10:07:44;;;;;;;;;;;7.80;99.90;;;;;;4857837;29;19934;-75
2022/12/28 10:10:16;;;;;;;;;;;7.80;99.90;;;;;;4855701;29;20122;-75
2022/12/28 10:12:42;;;;;;;;;;;7.80;99.90;;;;;;4840368;29;19924;-76
2022/12/28 10:15:11;;;;;;;;;;;7.80;99.90;;;;;;4839470;29;19932;-76
2022/12/28 10:17:37;;;;;;;;;;;7.80;99.90;;;;;;4839700;29;19938;-76
2022/12/28 10:20:03;;;;;;;;;;;7.70;99.90;;;;;;4853956;29;19976;-75
2022/12/28 10:22:35;;;;;;;;;;;7.70;99.90;;;;;;4853887;29;19924;-75
2022/12/28 10:25:01;;;;;;;;;;;7.70;99.90;;;;;;4855697;29;19928;-75
2022/12/28 10:27:30;;;;;;;;;;;7.70;99.90;;;;;;4854246;29;19939;-76
2022/12/28 10:29:58;;;;;;;;;;;7.70;99.90;;;;;;4855532;29;19928;-76
2022/12/28 10:32:23;;;;;;;;;;;7.60;99.90;;;;;;4839349;29;19963;-76
2022/12/28 10:34:52;;;;;;;;;;;7.60;99.90;;;;;;4823785;29;20039;-77
2022/12/28 10:37:18;;;;;;;;;;;7.60;99.90;;;;;;4840651;29;19928;-77
2022/12/28 10:39:51;;;;;;;;;;;7.60;99.90;;;;;;4841397;29;20848;-77
2022/12/28 10:42:22;;;;;;;;;;;7.50;99.90;;;;;;4858191;29;19938;-76
2022/12/28 10:44:48;;;;;;;;;;;7.50;99.90;;;;;;4851247;29;19939;-76
2022/12/28 10:47:16;;;;;;;;;;;7.50;99.90;;;;;;4855346;29;19923;-77
2022/12/28 10:49:47;;;;;;;;;;;7.50;99.90;;;;;;4840602;29;19928;-77
2022/12/28 10:52:12;;;;;;;;;;;7.50;99.90;;;;;;4838012;29;20270;-79
2022/12/28 10:54:38;;;;;;;;;;;7.50;99.90;;;;;;4842941;29;19944;-79
2022/12/28 10:57:04;;;;;;;;;;;7.50;99.90;;;;;;4859890;29;19928;-79
2022/12/28 10:59:31;;;;;;;;;;;7.50;99.90;;;;;;4841927;29;19928;-77
2022/12/28 11:02:25;;;;;;;;;;;7.50;99.90;;;;;;4843938;29;20033;-76
2022/12/28 11:04:56;;;;;;;;;;;7.50;99.90;;;;;;4849866;29;19987;-76
2022/12/28 11:07:26;;;;;;;;;;;7.40;99.90;;;;;;4856050;29;20010;-76
2022/12/28 11:09:52;;;;;;;;;;;7.50;99.90;;;;;;4861552;29;20340;-78
2022/12/28 11:12:22;;;;;;;;;;;7.40;99.90;;;;;;4857727;29;20018;-77
2022/12/28 11:14:51;;;;;;;;;;;7.40;99.90;;;;;;4860205;29;19935;-78
2022/12/28 11:17:19;;;;;;;;;;;7.50;99.90;;;;;;4838363;29;19932;-79
2022/12/28 11:19:50;;;;;;;;;;;7.50;99.90;;;;;;4846983;29;19934;-80
2022/12/28 11:22:19;;;;;;;;;;;7.50;99.90;;;;;;4847528;29;19946;-78
2022/12/28 11:24:45;;;;;;;;;;;7.50;99.90;;;;;;4849236;29;19928;-78
2022/12/28 11:27:15;;;;;;;;;;;7.50;99.90;;;;;;4848799;29;20345;-78
2022/12/28 11:29:43;;;;;;;;;;;7.50;99.90;;;;;;4863123;29;19936;-78
2022/12/28 11:32:14;;;;;;;;;;;7.60;99.90;;;;;;4862777;29;19932;-78
2022/12/28 11:34:40;;;;;;;;;;;7.60;99.90;;;;;;4867087;29;19924;-79
2022/12/28 11:37:11;;;;;;;;;;;7.60;99.90;;;;;;4847400;29;19980;-78
2022/12/28 11:39:47;;;;;;;;;;;7.60;99.90;;;;;;4837099;29;19939;-78
2022/12/28 11:42:31;;;;;;;;;;;7.60;99.90;;;;;;4859635;29;19980;-78
2022/12/28 11:44:57;;;;;;;;;;;7.70;99.90;;;;;;4858867;29;20451;-78
2022/12/28 11:47:31;;;;;;;;;;;7.70;99.90;;;;;;4849083;29;19924;-78
2022/12/28 11:50:16;;;;;;;;;;;7.70;99.90;;;;;;4866731;29;20285;-79
2022/12/28 11:52:46;;;;;;;;;;;7.70;99.90;;;;;;4863462;29;20480;-78
2022/12/28 11:55:21;;;;;;;;;;;7.70;99.90;;;;;;4854959;29;19953;-79
2022/12/28 11:57:47;;;;;;;;;;;7.70;99.90;;;;;;4864694;29;20398;-78
2022/12/28 12:00:15;;;;;;;;;;;7.70;99.90;;;;;;4865484;29;19924;-78
2022/12/28 12:02:49;;;;;;;;;;;7.70;99.90;;;;;;4865037;29;20296;-78
2022/12/28 12:05:33;;;;;;;;;;;7.70;99.90;;;;;;4845698;29;19971;-79
2022/12/28 12:08:22;;;;;;;;;;;7.60;99.90;;;;;;4866687;29;20007;-78
2022/12/28 12:10:48;;;;;;;;;;;7.60;99.90;;;;;;4846310;29;19972;-79
2022/12/28 12:13:26;;;;;;;;;;;7.60;99.90;;;;;;4864779;29;20090;-79
2022/12/28 12:16:00;;;;;;;;;;;7.60;99.90;;;;;;4864526;29;19924;-78
2022/12/28 12:18:27;;;;;;;;;;;7.60;99.90;;;;;;4849350;29;19963;-79
2022/12/28 12:21:06;;;;;;;;;;;7.60;99.90;;;;;;4863938;29;19928;-78
2022/12/28 12:23:41;;;;;;;;;;;7.60;99.90;;;;;;4845921;29;19928;-79
2022/12/28 12:26:26;;;;;;;;;;;7.60;99.90;;;;;;4851191;29;19934;-79
2022/12/28 12:28:58;;;;;;;;;;;7.60;99.90;;;;;;4879616;29;19924;-77
2022/12/28 12:31:31;;;;;;;;;;;7.60;99.90;;;;;;4846546;29;19931;-77
2022/12/28 12:34:02;;;;;;;;;;;7.50;99.90;;;;;;4851116;29;20011;-78
2022/12/28 12:36:37;;;;;;;;;;;7.60;99.90;;;;;;4865898;29;20350;-78
2022/12/28 12:39:05;;;;;;;;;;;7.50;99.90;;;;;;4876371;29;20079;-78
2022/12/28 12:41:34;;;;;;;;;;;7.50;99.90;;;;;;4845943;29;20018;-78
2022/12/28 12:44:08;;;;;;;;;;;7.50;99.90;;;;;;4844678;29;19932;-77
2022/12/28 12:47:01;;;;;;;;;;;7.50;99.90;;;;;;4844504;29;19928;-78
2022/12/28 12:49:45;;;;;;;;;;;7.50;99.90;;;;;;4843476;29;19934;-77
2022/12/28 12:52:12;;;;;;;;;;;7.50;99.90;;;;;;4843517;29;19978;-78
2022/12/28 12:54:47;;;;;;;;;;;7.50;99.90;;;;;;4845070;29;20497;-77
2022/12/28 12:57:17;;;;;;;;;;;7.50;99.90;;;;;;4860446;29;19924;-77
2022/12/28 12:59:45;;;;;;;;;;;7.50;99.90;;;;;;4857952;29;19924;-77
2022/12/28 13:02:22;;;;;;;;;;;7.50;99.90;;;;;;4860173;29;20415;-78
2022/12/28 13:04:48;;;;;;;;;;;7.50;99.90;;;;;;4855967;29;20281;-77
2022/12/28 13:07:19;;;;;;;;;;;7.50;99.90;;;;;;4860113;29;20018;-79
2022/12/28 13:09:48;;;;;;;;;;;7.50;99.90;;;;;;4857591;29;21955;-78
2022/12/28 13:12:15;;;;;;;;;;;7.50;99.90;;;;;;4856796;29;20042;-77
2022/12/28 13:14:45;;;;;;;;;;;7.50;99.90;;;;;;4838579;29;19946;-78
2022/12/28 13:17:19;;;;;;;;;;;7.50;99.90;;;;;;4842129;29;19928;-77
2022/12/28 13:19:45;;;;;;;;;;;7.50;99.90;;;;;;4853867;29;19928;-77
2022/12/28 13:22:26;;;;;;;;;;;7.40;99.90;;;;;;4856057;29;19924;-77
2022/12/28 13:24:52;;;;;;;;;;;7.40;99.90;;;;;;4833713;29;20427;-77
2022/12/28 13:27:18;;;;;;;;;;;7.40;99.90;;;;;;4836167;29;19928;-77
2022/12/28 13:29:49;;;;;;;;;;;7.40;99.90;;;;;;4862688;29;19979;-77
2022/12/28 13:32:28;;;;;;;;;;;7.40;99.90;;;;;;4844110;29;20064;-77
2022/12/28 13:34:54;;;;;;;;;;;7.30;99.90;;;;;;4859303;29;19931;-78
2022/12/28 13:37:20;;;;;;;;;;;7.30;99.90;;;;;;4855543;29;20475;-77
2022/12/28 13:39:46;;;;;;;;;;;7.30;99.90;;;;;;4855125;29;19927;-77
2022/12/28 13:42:15;;;;;;;;;;;7.20;99.90;;;;;;4855963;29;19979;-78
2022/12/28 13:44:44;;;;;;;;;;;7.20;99.90;;;;;;4856231;29;19928;-77
2022/12/28 13:47:24;;;;;;;;;;;7.20;99.90;;;;;;4842859;29;20393;-77
2022/12/28 13:49:53;;;;;;;;;;;7.20;99.90;;;;;;4825354;29;19928;-77
2022/12/28 13:52:21;;;;;;;;;;;7.20;99.90;;;;;;4873821;29;19927;-77
2022/12/28 13:54:50;;;;;;;;;;;7.20;99.90;;;;;;4850811;29;19932;-78
2022/12/28 13:57:16;;;;;;;;;;;7.20;99.90;;;;;;4838190;29;20007;-78
2022/12/28 13:59:42;;;;;;;;;;;7.20;99.90;;;;;;4822794;29;20003;-78
2022/12/28 14:02:12;;;;;;;;;;;7.20;99.90;;;;;;4849972;29;20019;-78
2022/12/28 14:04:38;;;;;;;;;;;7.20;99.90;;;;;;4833163;29;19935;-78
2022/12/28 14:07:09;;;;;;;;;;;7.20;99.90;;;;;;4852658;29;19928;-77
2022/12/28 14:09:35;;;;;;;;;;;7.20;99.90;;;;;;4836363;29;19928;-77
2022/12/28 14:12:01;;;;;;;;;;;7.20;99.90;;;;;;4837905;29;19924;-78
2022/12/28 14:14:27;;;;;;;;;;;7.20;99.90;;;;;;4853924;29;19988;-78
2022/12/28 14:16:52;;;;;;;;;;;7.20;99.90;;;;;;4851639;29;19924;-77
2022/12/28 14:19:18;;;;;;;;;;;7.30;99.90;;;;;;4822344;29;19936;-78
2022/12/28 14:21:44;;;;;;;;;;;7.30;99.90;;;;;;4829846;29;19987;-78
2022/12/28 14:24:11;;;;;;;;;;;7.30;99.90;;;;;;4837693;29;19944;-78
2022/12/28 14:26:57;;;;;;;;;;;7.30;99.90;;;;;;4835992;29;19942;-78
2022/12/28 14:29:27;;;;;;;;;;;7.40;99.90;;;;;;4838072;29;19924;-77
2022/12/28 14:31:54;;;;;;;;;;;7.40;99.90;;;;;;4839334;29;20010;-77
2022/12/28 14:34:26;;;;;;;;;;;7.40;99.90;;;;;;4855680;29;20012;-77
2022/12/28 14:36:53;;;;;;;;;;;7.50;99.90;;;;;;4855039;29;20292;-77
2022/12/28 14:39:45;;;;;;;;;;;7.50;99.90;;;;;;4856170;29;19924;-77
2022/12/28 14:42:22;;;;;;;;;;;7.50;99.90;;;;;;4852169;29;19943;-77
2022/12/28 14:44:48;;;;;;;;;;;7.50;99.90;;;;;;4853281;29;19928;-78
2022/12/28 14:47:32;;;;;;;;;;;7.50;99.90;;;;;;4854497;29;19924;-78
2022/12/28 14:49:59;;;;;;;;;;;7.60;99.90;;;;;;4849617;29;19930;-77
2022/12/28 14:52:35;;;;;;;;;;;7.60;99.90;;;;;;4857655;29;20292;-77
2022/12/28 14:55:19;;;;;;;;;;;7.60;99.90;;;;;;4841165;29;19928;-77
2022/12/28 14:57:44;;;;;;;;;;;7.60;99.90;;;;;;4833975;29;20031;-78
2022/12/28 15:00:13;;;;;;;;;;;7.60;99.90;;;;;;4826046;29;19988;-78
2022/12/28 15:02:40;;;;;;;;;;;7.70;99.90;;;;;;4842095;29;19924;-78
2022/12/28 15:05:24;;;;;;;;;;;7.70;99.90;;;;;;4852191;29;20341;-77
2022/12/28 15:07:50;;;;;;;;;;;7.70;99.90;;;;;;4840891;29;19975;-78